Time;durP1;ratioP1;P1;durP2;ratioP2;P2;SDS_P1;SDS_P2;PMS_P1;PMS_P2;Temp;Humidity;BMP_temperature;BMP_pressure;BME280_temperature;BME280_humidity;BME280_pressure;Samples;Min_cycle;Max_cycle;Signal;HPM_P1;HPM_P2
2022/04/09 00:01:45;;;;;;;11.23;2.15;;;4.60;99.90;;;;;;5030380;28;20405;-82
2022/04/09 00:04:11;;;;;;;9.93;2.05;;;4.60;99.90;;;;;;5055366;28;20050;-82
2022/04/09 00:06:37;;;;;;;10.35;1.85;;;4.50;99.90;;;;;;5072632;28;20021;-82
2022/04/09 00:09:03;;;;;;;4.90;1.67;;;4.60;99.90;;;;;;5034570;28;20036;-82
2022/04/09 00:11:29;;;;;;;6.53;1.50;;;4.50;99.90;;;;;;5069119;28;20025;-80
2022/04/09 00:13:55;;;;;;;3.45;1.50;;;4.40;99.90;;;;;;5062661;28;20033;-82
2022/04/09 00:16:21;;;;;;;5.05;1.45;;;4.40;99.90;;;;;;5053096;28;20033;-82
2022/04/09 00:18:47;;;;;;;6.15;1.30;;;4.30;99.90;;;;;;5052733;28;20070;-81
2022/04/09 00:21:12;;;;;;;8.70;1.65;;;4.30;99.90;;;;;;5031248;28;20029;-81
2022/04/09 00:23:38;;;;;;;9.70;2.17;;;4.40;99.90;;;;;;5051006;28;20072;-81
2022/04/09 00:26:04;;;;;;;4.72;1.55;;;4.40;99.90;;;;;;5038560;28;20578;-82
2022/04/09 00:28:30;;;;;;;7.60;1.38;;;4.40;99.90;;;;;;5055061;28;20054;-81
2022/04/09 00:30:56;;;;;;;5.30;1.33;;;4.30;99.90;;;;;;5045436;28;20021;-81
2022/04/09 00:33:22;;;;;;;7.10;1.25;;;4.40;99.90;;;;;;5061118;28;20025;-80
2022/04/09 00:35:48;;;;;;;9.40;2.13;;;4.40;99.90;;;;;;5037732;28;20034;-82
2022/04/09 00:38:14;;;;;;;4.93;1.17;;;4.40;99.90;;;;;;5047215;28;20059;-81
2022/04/09 00:40:40;;;;;;;4.43;1.38;;;4.30;99.90;;;;;;5039758;28;20040;-81
2022/04/09 00:43:06;;;;;;;5.05;1.17;;;4.30;99.90;;;;;;5070117;28;20373;-81
2022/04/09 00:45:31;;;;;;;2.05;1.20;;;4.30;99.90;;;;;;5054324;28;20032;-81
2022/04/09 00:47:59;;;;;;;3.95;1.13;;;4.30;99.90;;;;;;5074365;28;20028;-82
2022/04/09 00:50:24;;;;;;;6.03;1.95;;;4.20;99.90;;;;;;5049735;28;20081;-81
2022/04/09 00:52:57;;;;;;;6.22;1.50;;;4.20;99.90;;;;;;5063730;28;20012;-80
2022/04/09 00:56:13;;;;;;;2.70;1.00;;;4.20;99.90;;;;;;5076604;28;20044;-79
2022/04/09 00:58:14;;;;;;;5.00;1.10;;;4.20;99.90;;;;;;5064249;28;20100;-80
2022/04/09 01:00:41;;;;;;;13.70;4.10;;;4.20;99.90;;;;;;5078767;28;20024;-80
2022/04/09 01:03:12;;;;;;;6.65;1.50;;;4.20;99.90;;;;;;5069906;28;20062;-79
2022/04/09 01:05:41;;;;;;;9.93;1.40;;;4.10;99.90;;;;;;5077592;28;20058;-80
2022/04/09 01:08:07;;;;;;;7.68;2.10;;;4.10;99.90;;;;;;5078895;28;20211;-80
2022/04/09 01:10:33;;;;;;;6.53;1.30;;;4.10;99.90;;;;;;5075199;28;20543;-79
2022/04/09 01:13:01;;;;;;;6.88;1.38;;;4.10;99.90;;;;;;5045615;28;20029;-80
2022/04/09 01:15:27;;;;;;;6.40;1.70;;;4.10;99.90;;;;;;5080752;28;20025;-80
2022/04/09 01:17:53;;;;;;;7.30;1.95;;;4.10;99.90;;;;;;5062393;28;20040;-81
2022/04/09 01:20:26;;;;;;;7.55;1.83;;;4.20;99.90;;;;;;5072877;28;20028;-81
2022/04/09 01:22:53;;;;;;;6.10;1.40;;;4.20;99.90;;;;;;5090440;28;20064;-81
2022/04/09 01:25:19;;;;;;;5.95;1.83;;;4.10;99.90;;;;;;5052652;28;20036;-81
2022/04/09 01:27:47;;;;;;;9.50;1.50;;;4.10;99.90;;;;;;5063919;28;20036;-81
2022/04/09 01:30:14;;;;;;;5.15;1.40;;;4.10;99.90;;;;;;5049905;28;20028;-82
2022/04/09 01:32:39;;;;;;;3.42;1.05;;;4.10;99.90;;;;;;5067155;28;20040;-82
2022/04/09 01:35:06;;;;;;;4.32;0.98;;;4.10;99.90;;;;;;5049536;28;20484;-82
2022/04/09 01:37:33;;;;;;;2.70;1.48;;;4.10;99.90;;;;;;5057144;28;20536;-81
2022/04/09 01:40:00;;;;;;;4.30;1.15;;;4.10;99.90;;;;;;5039617;28;20040;-82
2022/04/09 01:42:27;;;;;;;2.28;0.88;;;4.10;99.90;;;;;;5040959;28;20123;-82
2022/04/09 01:44:53;;;;;;;5.85;1.00;;;4.10;99.90;;;;;;5035190;28;20567;-83
2022/04/09 01:47:19;;;;;;;8.38;1.55;;;4.00;99.90;;;;;;5070387;28;20033;-83
2022/04/09 01:49:46;;;;;;;5.53;1.20;;;4.00;99.90;;;;;;5081422;28;20024;-82
2022/04/09 01:52:12;;;;;;;10.63;1.70;;;4.00;99.90;;;;;;5063893;28;20029;-81
2022/04/09 01:54:38;;;;;;;5.55;0.95;;;4.00;99.90;;;;;;5045498;28;20032;-82
2022/04/09 01:57:04;;;;;;;5.53;1.23;;;4.00;99.90;;;;;;5071568;28;20041;-81
2022/04/09 01:59:30;;;;;;;3.75;1.17;;;4.10;99.90;;;;;;5066090;28;20080;-81
2022/04/09 02:01:56;;;;;;;6.72;1.23;;;4.00;99.90;;;;;;5042882;28;20127;-81
2022/04/09 02:04:22;;;;;;;6.60;1.30;;;4.00;99.90;;;;;;5049600;28;20017;-81
2022/04/09 02:06:48;;;;;;;6.75;2.00;;;3.90;99.90;;;;;;5063413;28;20097;-81
2022/04/09 02:09:14;;;;;;;3.13;1.30;;;3.80;99.90;;;;;;5043156;28;20025;-81
2022/04/09 02:11:43;;;;;;;8.52;1.50;;;3.70;99.90;;;;;;5056009;28;20059;-80
2022/04/09 02:14:10;;;;;;;2.60;1.05;;;3.80;99.90;;;;;;5067097;28;20028;-82
2022/04/09 02:16:39;;;;;;;7.07;1.35;;;3.70;99.90;;;;;;5036979;28;20029;-82
2022/04/09 02:19:05;;;;;;;6.72;1.83;;;3.70;99.90;;;;;;5058937;28;20096;-82
2022/04/09 02:21:31;;;;;;;9.18;1.50;;;3.80;99.90;;;;;;5041325;28;20017;-82
2022/04/09 02:23:58;;;;;;;4.00;1.27;;;3.80;99.90;;;;;;5040703;28;20043;-82
2022/04/09 02:26:25;;;;;;;3.35;1.38;;;3.70;99.90;;;;;;5057566;28;20033;-82
2022/04/09 02:28:53;;;;;;;5.10;2.03;;;3.70;99.90;;;;;;5051820;28;20036;-81
2022/04/09 02:31:20;;;;;;;3.35;1.00;;;3.70;99.90;;;;;;5072556;28;20522;-81
2022/04/09 02:33:49;;;;;;;3.80;1.17;;;3.70;99.90;;;;;;5056770;28;20103;-82
2022/04/09 02:36:18;;;;;;;4.25;1.00;;;3.70;99.90;;;;;;5040293;28;20508;-82
2022/04/09 02:38:48;;;;;;;8.45;1.83;;;3.70;99.90;;;;;;5041024;28;20052;-81
2022/04/09 02:41:17;;;;;;;7.72;1.60;;;3.80;99.90;;;;;;5051419;28;20025;-79
2022/04/09 02:43:51;;;;;;;4.57;1.40;;;3.80;99.90;;;;;;5082955;28;20861;-79
2022/04/09 02:46:18;;;;;;;5.18;1.73;;;3.80;99.90;;;;;;5055813;28;20726;-81
2022/04/09 02:48:45;;;;;;;5.47;2.13;;;3.80;99.90;;;;;;5056026;28;20033;-81
2022/04/09 02:51:14;;;;;;;4.85;1.52;;;3.80;99.90;;;;;;5043613;28;20027;-81
2022/04/09 02:53:40;;;;;;;4.97;1.70;;;3.80;99.90;;;;;;5028182;28;20044;-81
2022/04/09 02:56:07;;;;;;;5.10;1.52;;;3.70;99.90;;;;;;5072176;28;20056;-81
2022/04/09 02:58:33;;;;;;;4.70;1.25;;;3.70;99.90;;;;;;5051523;28;21853;-81
2022/04/09 03:01:03;;;;;;;9.68;2.53;;;3.70;99.90;;;;;;5069045;28;20403;-81
2022/04/09 03:03:30;;;;;;;10.60;2.25;;;3.60;99.90;;;;;;5041036;28;20075;-81
2022/04/09 03:05:56;;;;;;;7.53;1.40;;;3.60;99.90;;;;;;5056267;28;20024;-82
2022/04/09 03:08:25;;;;;;;12.32;1.65;;;3.70;99.90;;;;;;5040125;28;20519;-82
2022/04/09 03:10:53;;;;;;;5.15;1.30;;;3.60;99.90;;;;;;5089390;28;20060;-81
2022/04/09 03:13:20;;;;;;;4.30;1.25;;;3.60;99.90;;;;;;5061407;28;20048;-81
2022/04/09 03:15:47;;;;;;;7.97;1.50;;;3.60;99.90;;;;;;5073589;28;20036;-81
2022/04/09 03:18:13;;;;;;;9.27;1.50;;;3.60;99.90;;;;;;5088024;28;20024;-81
2022/04/09 03:20:39;;;;;;;7.15;1.60;;;3.60;99.90;;;;;;5074136;28;20099;-80
2022/04/09 03:23:05;;;;;;;4.90;1.52;;;3.60;99.90;;;;;;5059376;28;20050;-80
2022/04/09 03:25:31;;;;;;;2.58;1.42;;;3.60;99.90;;;;;;5059842;28;20032;-80
2022/04/09 03:27:57;;;;;;;7.22;1.50;;;3.50;99.90;;;;;;5058983;28;20115;-82
2022/04/09 03:30:25;;;;;;;8.05;1.67;;;3.50;99.90;;;;;;5102265;28;20024;-81
2022/04/09 03:32:53;;;;;;;8.80;1.65;;;3.50;99.90;;;;;;5071702;28;20029;-81
2022/04/09 03:35:19;;;;;;;7.40;1.85;;;3.50;99.90;;;;;;5040222;28;20028;-81
2022/04/09 03:37:45;;;;;;;3.10;1.13;;;3.60;99.90;;;;;;5059227;28;20496;-81
2022/04/09 03:40:12;;;;;;;7.93;1.92;;;3.50;99.90;;;;;;5027187;28;20106;-81
2022/04/09 03:42:39;;;;;;;10.52;1.92;;;3.50;99.90;;;;;;5046517;28;20056;-81
2022/04/09 03:45:06;;;;;;;11.57;2.67;;;3.50;99.90;;;;;;5030412;28;20024;-83
2022/04/09 03:47:33;;;;;;;9.75;2.13;;;3.50;99.90;;;;;;5057105;28;20103;-81
2022/04/09 03:50:10;;;;;;;9.48;1.90;;;3.50;99.90;;;;;;5032251;28;20048;-84
2022/04/09 03:52:38;;;;;;;5.47;1.85;;;3.50;99.90;;;;;;5055593;28;20020;-81
2022/04/09 03:55:04;;;;;;;5.72;1.70;;;3.50;99.90;;;;;;5036825;28;20027;-82
2022/04/09 03:57:33;;;;;;;9.07;2.15;;;3.50;99.90;;;;;;5045893;28;20112;-80
2022/04/09 04:00:00;;;;;;;7.65;1.77;;;3.40;99.90;;;;;;5056258;28;20039;-81
2022/04/09 04:02:26;;;;;;;6.80;2.00;;;3.40;99.90;;;;;;5056474;28;20059;-81
2022/04/09 04:04:52;;;;;;;6.38;2.78;;;3.40;99.90;;;;;;5040408;28;20025;-82
2022/04/09 04:07:22;;;;;;;9.23;2.20;;;3.40;99.90;;;;;;5058480;28;20606;-82
2022/04/09 04:09:49;;;;;;;8.43;2.40;;;3.40;99.90;;;;;;5045238;28;20036;-82
2022/04/09 04:12:15;;;;;;;10.65;2.63;;;3.40;99.90;;;;;;5045870;28;20024;-84
2022/04/09 04:14:41;;;;;;;9.15;2.40;;;3.50;99.90;;;;;;5027964;28;20129;-81
2022/04/09 04:17:07;;;;;;;9.93;3.03;;;3.40;99.90;;;;;;5040604;28;20492;-82
2022/04/09 04:19:35;;;;;;;10.18;3.00;;;3.40;99.90;;;;;;5054593;28;20040;-83
2022/04/09 04:22:02;;;;;;;7.43;2.65;;;3.40;99.90;;;;;;5045460;28;20058;-80
2022/04/09 04:24:28;;;;;;;8.18;2.78;;;3.50;99.90;;;;;;5053613;28;20029;-80
2022/04/09 04:26:54;;;;;;;9.65;2.60;;;3.50;99.90;;;;;;5057457;28;20040;-82
2022/04/09 04:29:20;;;;;;;6.68;2.58;;;3.50;99.90;;;;;;5038311;28;20025;-81
2022/04/09 04:31:45;;;;;;;8.63;2.55;;;3.50;99.90;;;;;;5050781;28;20462;-81
2022/04/09 04:34:11;;;;;;;12.02;3.25;;;3.50;99.90;;;;;;5036970;28;20504;-81
2022/04/09 04:36:38;;;;;;;8.70;2.38;;;3.50;99.90;;;;;;5055008;28;20703;-81
2022/04/09 04:39:04;;;;;;;9.15;2.53;;;3.50;99.90;;;;;;5037124;28;20084;-82
2022/04/09 04:41:30;;;;;;;15.05;3.08;;;3.50;99.90;;;;;;5057938;28;20104;-81
2022/04/09 04:43:56;;;;;;;11.40;3.15;;;3.50;99.90;;;;;;5042122;28;20941;-82
2022/04/09 04:46:27;;;;;;;8.07;3.35;;;3.60;99.90;;;;;;5055971;28;20032;-80
2022/04/09 04:48:58;;;;;;;9.30;2.70;;;3.50;99.90;;;;;;5058984;28;20535;-83
2022/04/09 04:51:24;;;;;;;9.18;2.75;;;3.50;99.90;;;;;;5037025;28;20308;-81
2022/04/09 04:53:54;;;;;;;7.90;2.67;;;3.50;99.90;;;;;;5054601;28;20036;-81
2022/04/09 04:56:22;;;;;;;9.23;2.65;;;3.50;99.90;;;;;;5088534;28;20056;-81
2022/04/09 04:58:50;;;;;;;7.53;2.53;;;3.50;99.90;;;;;;5044891;28;20401;-81
2022/04/09 05:01:16;;;;;;;13.02;2.50;;;3.50;99.90;;;;;;5037183;28;20093;-81
2022/04/09 05:03:45;;;;;;;6.35;2.35;;;3.50;99.90;;;;;;5080440;28;20035;-80
2022/04/09 05:06:11;;;;;;;13.52;3.38;;;3.50;99.90;;;;;;5054333;28;20107;-81
2022/04/09 05:08:39;;;;;;;8.45;2.85;;;3.60;99.90;;;;;;5074258;28;20048;-81
2022/04/09 05:11:05;;;;;;;12.38;3.40;;;3.60;99.90;;;;;;5044271;28;20032;-81
2022/04/09 05:13:31;;;;;;;13.77;2.95;;;3.60;99.90;;;;;;5075430;28;20040;-82
2022/04/09 05:15:58;;;;;;;9.73;2.90;;;3.70;99.90;;;;;;5046802;28;20059;-83
2022/04/09 05:18:24;;;;;;;7.40;2.80;;;3.70;99.90;;;;;;5042430;28;20024;-81
2022/04/09 05:20:56;;;;;;;7.60;2.58;;;3.80;99.90;;;;;;5049398;28;20107;-82
2022/04/09 05:23:23;;;;;;;;;;;3.80;99.90;;;;;;5059276;28;20043;-81
2022/04/09 05:25:50;;;;;;;6.88;2.47;;;3.80;99.90;;;;;;5077653;28;19912;-80
2022/04/09 05:28:19;;;;;;;8.02;2.22;;;3.80;99.90;;;;;;5064312;28;20029;-81
2022/04/09 05:30:46;;;;;;;16.33;2.83;;;3.80;99.90;;;;;;5053895;28;20032;-82
2022/04/09 05:33:12;;;;;;;10.95;3.92;;;3.80;99.90;;;;;;5029404;28;20084;-82
2022/04/09 05:35:40;;;;;;;10.70;2.42;;;3.90;99.90;;;;;;5038615;28;20036;-81
2022/04/09 05:38:09;;;;;;;12.85;2.47;;;3.90;99.90;;;;;;5055017;28;20134;-82
2022/04/09 05:40:36;;;;;;;9.48;3.10;;;3.80;99.90;;;;;;5038812;28;20121;-81
2022/04/09 05:43:03;;;;;;;13.18;3.00;;;3.80;99.90;;;;;;5044879;28;20033;-82
2022/04/09 05:45:29;;;;;;;12.13;2.70;;;3.90;99.90;;;;;;5057558;28;20020;-82
2022/04/09 05:47:58;;;;;;;8.35;2.88;;;3.90;99.90;;;;;;5043760;28;20024;-81
2022/04/09 05:50:24;;;;;;;9.00;2.53;;;4.00;99.90;;;;;;5060039;28;20025;-82
2022/04/09 05:52:50;;;;;;;10.15;3.03;;;4.00;99.90;;;;;;5060916;28;20028;-81
2022/04/09 05:55:23;;;;;;;6.95;2.72;;;4.10;99.90;;;;;;5079277;28;20683;-81
2022/04/09 05:57:50;;;;;;;13.15;2.72;;;4.20;99.90;;;;;;5089117;28;20074;-82
2022/04/09 06:00:19;;;;;;;9.00;2.42;;;4.20;99.90;;;;;;5045318;28;20024;-81
2022/04/09 06:02:46;;;;;;;12.30;2.20;;;4.20;99.90;;;;;;5070465;28;20892;-81
2022/04/09 06:05:12;;;;;;;10.38;2.35;;;4.30;99.90;;;;;;5052159;28;20021;-80
2022/04/09 06:07:40;;;;;;;14.07;3.63;;;4.30;99.90;;;;;;5054361;28;20120;-80
2022/04/09 06:10:08;;;;;;;8.77;2.65;;;4.30;99.90;;;;;;5045100;28;20021;-81
2022/04/09 06:12:35;;;;;;;9.60;2.30;;;4.40;99.90;;;;;;5030052;28;20029;-80
2022/04/09 06:15:03;;;;;;;10.73;2.25;;;4.50;99.90;;;;;;5053437;28;20400;-81
2022/04/09 06:17:29;;;;;;;10.95;3.28;;;4.70;99.90;;;;;;5046798;28;20041;-81
2022/04/09 06:19:55;;;;;;;9.88;2.13;;;4.70;99.90;;;;;;5042598;28;20060;-80
2022/04/09 06:22:23;;;;;;;9.77;2.33;;;4.70;99.90;;;;;;5061074;28;20033;-81
2022/04/09 06:24:52;;;;;;;8.90;2.55;;;4.70;99.90;;;;;;5051893;28;20032;-81
2022/04/09 06:27:18;;;;;;;13.13;2.75;;;4.50;99.90;;;;;;5060068;28;20039;-79
2022/04/09 06:29:45;;;;;;;7.28;1.90;;;4.40;99.90;;;;;;5066427;28;20021;-81
2022/04/09 06:32:12;;;;;;;6.85;2.10;;;4.30;99.90;;;;;;5073395;28;20055;-80
2022/04/09 06:34:39;;;;;;;8.60;2.17;;;4.20;99.90;;;;;;5058306;28;20083;-80
2022/04/09 06:37:06;;;;;;;6.15;1.88;;;4.30;99.90;;;;;;5071791;28;20032;-80
2022/04/09 06:39:34;;;;;;;11.63;2.10;;;4.50;99.90;;;;;;5063311;28;20088;-79
2022/04/09 06:42:02;;;;;;;10.38;2.28;;;4.70;99.90;;;;;;5057076;28;20033;-81
2022/04/09 06:44:28;;;;;;;8.55;2.22;;;4.90;99.90;;;;;;5056478;28;20070;-80
2022/04/09 06:46:54;;;;;;;4.68;1.83;;;5.10;99.90;;;;;;5055329;28;20032;-81
2022/04/09 06:49:21;;;;;;;8.57;2.03;;;5.30;99.90;;;;;;5067565;28;20033;-80
2022/04/09 06:51:48;;;;;;;7.50;2.10;;;5.40;99.90;;;;;;5051457;28;20044;-81
2022/04/09 06:54:18;;;;;;;9.35;1.80;;;5.50;99.90;;;;;;5082865;28;20025;-81
2022/04/09 06:56:47;;;;;;;12.15;2.60;;;5.40;99.90;;;;;;5025745;28;20029;-81
2022/04/09 06:59:13;;;;;;;10.85;2.60;;;5.30;99.90;;;;;;5050867;28;20500;-81
2022/04/09 07:01:39;;;;;;;12.30;2.97;;;5.30;99.90;;;;;;5087290;28;20025;-81
2022/04/09 07:04:05;;;;;;;5.43;1.90;;;5.40;99.90;;;;;;5037725;28;20021;-83
2022/04/09 07:06:32;;;;;;;11.57;2.75;;;5.40;99.90;;;;;;5056960;28;20033;-83
2022/04/09 07:08:58;;;;;;;10.70;2.45;;;5.40;99.90;;;;;;5040085;28;20031;-81
2022/04/09 07:11:25;;;;;;;9.60;2.13;;;5.60;99.90;;;;;;5072033;28;20017;-82
2022/04/09 07:13:52;;;;;;;8.48;1.90;;;5.50;99.90;;;;;;5046669;28;20024;-81
2022/04/09 07:16:20;;;;;;;11.40;2.40;;;5.60;99.90;;;;;;5067860;28;20041;-82
2022/04/09 07:18:46;;;;;;;5.07;1.88;;;5.60;99.90;;;;;;5056992;28;20032;-81
2022/04/09 07:21:16;;;;;;;11.38;1.92;;;5.50;99.90;;;;;;5037382;28;20079;-81
2022/04/09 07:23:42;;;;;;;3.38;1.40;;;5.40;99.90;;;;;;5066444;28;20155;-81
2022/04/09 07:26:14;;;;;;;7.32;2.05;;;5.40;99.90;;;;;;5067007;28;20020;-82
2022/04/09 07:28:42;;;;;;;5.93;2.00;;;5.50;99.90;;;;;;5034608;28;20140;-84
2022/04/09 07:31:08;;;;;;;6.45;1.80;;;5.50;99.90;;;;;;5030383;28;20021;-82
2022/04/09 07:33:34;;;;;;;5.28;1.77;;;5.50;99.90;;;;;;5061408;28;21057;-82
2022/04/09 07:36:01;;;;;;;14.77;2.65;;;5.40;99.90;;;;;;5037721;28;20020;-82
2022/04/09 07:38:28;;;;;;;6.07;1.88;;;5.10;99.90;;;;;;5029628;28;20060;-81
2022/04/09 07:40:56;;;;;;;4.82;1.52;;;5.10;99.90;;;;;;5063628;28;20096;-80
2022/04/09 07:43:23;;;;;;;5.55;1.73;;;5.10;99.90;;;;;;5086709;28;20032;-83
2022/04/09 07:45:58;;;;;;;7.65;1.88;;;5.10;99.90;;;;;;5076436;28;20175;-80
2022/04/09 07:48:26;;;;;;;8.75;2.33;;;5.30;99.90;;;;;;5057619;28;20150;-83
2022/04/09 07:50:52;;;;;;;5.28;1.85;;;5.40;99.90;;;;;;5052359;28;20029;-85
2022/04/09 07:53:19;;;;;;;4.80;1.80;;;5.40;99.90;;;;;;5043315;28;20066;-82
2022/04/09 07:55:45;;;;;;;4.22;1.55;;;5.60;99.90;;;;;;5056703;28;20041;-82
2022/04/09 07:58:14;;;;;;;10.63;2.22;;;5.70;99.90;;;;;;5034236;28;20062;-83
2022/04/09 08:00:41;;;;;;;3.95;1.60;;;5.70;99.90;;;;;;5054636;28;20029;-81
2022/04/09 08:03:08;;;;;;;9.25;1.92;;;5.90;99.90;;;;;;5035892;28;20100;-82
2022/04/09 08:05:34;;;;;;;7.93;2.10;;;6.00;99.90;;;;;;5052854;28;20138;-84
2022/04/09 08:08:01;;;;;;;10.82;1.80;;;6.10;99.90;;;;;;5053368;28;20060;-82
2022/04/09 08:10:27;;;;;;;9.57;2.13;;;6.10;99.90;;;;;;5068621;28;20047;-82
2022/04/09 08:12:56;;;;;;;6.97;1.63;;;6.20;99.90;;;;;;5032340;28;20044;-84
2022/04/09 08:15:24;;;;;;;7.50;2.10;;;6.10;99.90;;;;;;5071089;28;20077;-82
2022/04/09 08:17:54;;;;;;;5.00;1.50;;;6.10;99.90;;;;;;5059418;28;20048;-80
2022/04/09 08:20:20;;;;;;;8.13;1.88;;;6.20;99.90;;;;;;5059741;28;20021;-83
2022/04/09 08:22:47;;;;;;;7.03;2.00;;;6.50;99.90;;;;;;5037337;28;20025;-86
2022/04/09 08:25:31;;;;;;;6.68;1.50;;;6.70;99.90;;;;;;5066986;28;20404;-81
2022/04/09 08:28:00;;;;;;;12.95;2.55;;;6.80;99.90;;;;;;5034723;28;20041;-82
2022/04/09 08:30:29;;;;;;;6.72;2.05;;;6.90;99.90;;;;;;5058716;28;20020;-81
2022/04/09 08:33:03;;;;;;;6.57;1.70;;;6.80;99.90;;;;;;5053674;28;20044;-81
2022/04/09 08:35:29;;;;;;;;;;;6.80;99.90;;;;;;5057709;28;20029;-84
2022/04/09 08:37:58;;;;;;;5.93;1.45;;;6.90;99.90;;;;;;5035583;28;19912;-84
2022/04/09 08:40:26;;;;;;;4.22;1.38;;;6.90;99.90;;;;;;5043902;28;20029;-83
2022/04/09 08:42:54;;;;;;;3.05;0.82;;;7.00;99.90;;;;;;5047065;28;20030;-82
2022/04/09 08:45:21;;;;;;;6.15;1.15;;;6.80;99.90;;;;;;5058634;28;20021;-83
2022/04/09 08:47:54;;;;;;;3.38;0.65;;;6.80;99.90;;;;;;5056810;28;20441;-80
2022/04/09 08:50:22;;;;;;;6.03;1.40;;;6.70;99.90;;;;;;5061899;28;20785;-78
2022/04/09 08:52:49;;;;;;;2.85;0.70;;;6.80;99.90;;;;;;5053794;28;20037;-79
2022/04/09 08:55:16;;;;;;;2.03;0.80;;;6.70;99.90;;;;;;5051885;28;20041;-78
2022/04/09 08:57:45;;;;;;;4.70;1.10;;;6.80;99.90;;;;;;5072489;28;20086;-79
2022/04/09 09:00:17;;;;;;;5.93;0.90;;;6.80;99.90;;;;;;5102020;28;20048;-78
2022/04/09 09:02:54;;;;;;;4.70;1.20;;;6.90;99.90;;;;;;5071524;28;20028;-78
2022/04/09 09:05:53;;;;;;;2.70;1.35;;;6.90;99.90;;;;;;5061772;28;20398;-78
2022/04/09 09:08:37;;;;;;;5.68;1.25;;;7.10;99.90;;;;;;4989721;28;20083;-79
2022/04/09 09:11:05;;;;;;;9.25;1.17;;;7.30;99.90;;;;;;5008414;28;20100;-78
2022/04/09 09:13:53;;;;;;;4.97;1.45;;;7.50;99.90;;;;;;5004754;28;20109;-79
2022/04/09 09:16:34;;;;;;;5.05;1.67;;;7.60;99.90;;;;;;4992755;28;20466;-79
2022/04/09 09:19:07;;;;;;;8.48;1.50;;;7.60;99.90;;;;;;4997143;28;20177;-79
2022/04/09 09:21:35;;;;;;;5.80;1.67;;;7.50;99.90;;;;;;4994051;28;20026;-77
2022/04/09 09:24:13;;;;;;;7.93;1.80;;;7.40;99.90;;;;;;4991385;28;20524;-78
2022/04/09 09:26:45;;;;;;;5.68;1.27;;;7.30;99.90;;;;;;5008001;28;20421;-80
2022/04/09 09:29:26;;;;;;;5.05;1.20;;;7.30;99.90;;;;;;5011721;28;20146;-79
2022/04/09 09:31:54;;;;;;;5.07;0.93;;;7.50;99.90;;;;;;4987668;28;20048;-78
2022/04/09 09:34:22;;;;;;;4.75;1.20;;;7.60;99.90;;;;;;5011469;28;20025;-77
2022/04/09 09:36:50;;;;;;;4.78;0.98;;;7.60;99.90;;;;;;5007571;28;20049;-78
2022/04/09 09:39:22;;;;;;;3.75;0.90;;;7.60;99.90;;;;;;4997847;28;20057;-78
2022/04/09 09:42:03;;;;;;;4.50;0.95;;;7.60;99.90;;;;;;5013352;28;20046;-81
2022/04/09 09:44:34;;;;;;;5.85;1.30;;;7.70;99.90;;;;;;5039676;28;20076;-78
2022/04/09 09:47:09;;;;;;;4.38;0.82;;;7.80;99.90;;;;;;5034319;28;20058;-77
2022/04/09 09:49:58;;;;;;;6.78;1.27;;;7.90;99.90;;;;;;5045847;28;20070;-78
2022/04/09 09:52:36;;;;;;;4.22;1.00;;;8.00;99.90;;;;;;5056203;28;20028;-79
2022/04/09 09:55:10;;;;;;;4.68;0.75;;;8.10;99.90;;;;;;5038624;28;20031;-79
2022/04/09 09:57:38;;;;;;;4.35;1.08;;;8.10;99.90;;;;;;5086880;28;20044;-78
2022/04/09 10:00:10;;;;;;;5.18;1.27;;;8.00;99.90;;;;;;5067250;28;20024;-78
2022/04/09 10:02:38;;;;;;;9.55;1.23;;;8.10;99.90;;;;;;5037467;28;20124;-78
2022/04/09 10:05:06;;;;;;;4.43;1.85;;;8.00;99.90;;;;;;5055063;28;20021;-80
2022/04/09 10:07:36;;;;;;;5.05;1.05;;;8.20;99.90;;;;;;5037212;28;20027;-79
2022/04/09 10:10:04;;;;;;;2.78;0.95;;;8.20;99.90;;;;;;5044780;28;20052;-80
2022/04/09 10:12:42;;;;;;;4.43;1.00;;;8.20;99.90;;;;;;5040040;28;20032;-79
2022/04/09 10:15:10;;;;;;;1.75;0.55;;;8.10;99.90;;;;;;5081103;28;20429;-78
2022/04/09 10:17:38;;;;;;;5.32;0.80;;;8.20;99.90;;;;;;5076736;28;20035;-79
2022/04/09 10:20:08;;;;;;;4.93;0.93;;;8.10;99.90;;;;;;5078354;28;20024;-78
2022/04/09 10:22:45;;;;;;;3.33;0.90;;;8.10;99.90;;;;;;5041039;28;20029;-80
2022/04/09 10:25:16;;;;;;;5.22;1.10;;;8.20;99.90;;;;;;5056766;28;20036;-80
2022/04/09 10:27:47;;;;;;;2.30;0.75;;;8.20;99.90;;;;;;5075285;28;20033;-79
2022/04/09 10:30:22;;;;;;;5.50;0.88;;;8.20;99.90;;;;;;5055063;28;20025;-79
2022/04/09 10:32:50;;;;;;;4.40;1.23;;;8.20;99.90;;;;;;5048874;28;20040;-79
2022/04/09 10:35:39;;;;;;;6.32;1.60;;;8.20;99.90;;;;;;5033116;28;20032;-79
2022/04/09 10:38:09;;;;;;;5.00;1.20;;;8.30;99.90;;;;;;5074209;28;20404;-80
2022/04/09 10:40:37;;;;;;;5.40;1.40;;;8.50;99.90;;;;;;5039398;28;20550;-80
2022/04/09 10:43:44;;;;;;;5.25;1.52;;;8.70;99.90;;;;;;5076635;28;20036;-80
2022/04/09 10:46:19;;;;;;;7.60;1.20;;;9.00;99.90;;;;;;5070008;28;20020;-80
2022/04/09 10:48:47;;;;;;;5.97;1.05;;;9.10;99.90;;;;;;5040715;28;20039;-79
2022/04/09 10:51:18;;;;;;;5.60;0.80;;;9.00;99.90;;;;;;5065318;28;20048;-80
2022/04/09 10:53:49;;;;;;;3.15;0.65;;;8.60;99.90;;;;;;5050831;28;20056;-79
2022/04/09 10:56:27;;;;;;;2.72;0.80;;;7.80;99.90;;;;;;5058748;28;20032;-81
2022/04/09 10:59:18;;;;;;;4.35;0.82;;;7.10;99.90;;;;;;5050330;28;20028;-79
2022/04/09 11:01:48;;;;;;;3.53;0.60;;;6.90;99.90;;;;;;5076329;28;20028;-80
2022/04/09 11:04:36;;;;;;;5.70;0.90;;;7.00;99.90;;;;;;5088190;28;20035;-79
2022/04/09 11:07:18;;;;;;;4.63;1.13;;;7.20;99.90;;;;;;5070872;28;20056;-80
2022/04/09 11:09:58;;;;;;;5.63;1.20;;;8.30;99.90;;;;;;5055358;28;20552;-78
2022/04/09 11:12:28;;;;;;;4.75;0.90;;;10.00;99.90;;;;;;5037643;28;20615;-79
2022/04/09 11:15:22;;;;;;;7.47;1.15;;;11.50;99.90;;;;;;5069386;28;20640;-79
2022/04/09 11:17:48;;;;;;;4.10;0.80;;;12.60;99.90;;;;;;5041450;28;20044;-79
2022/04/09 11:20:23;;;;;;;7.70;1.52;;;11.80;99.70;;;;;;5091176;28;20024;-80
2022/04/09 11:22:56;;;;;;;4.25;1.08;;;11.10;99.90;;;;;;5090460;28;20029;-80
2022/04/09 11:25:24;;;;;;;5.13;1.20;;;11.40;99.90;;;;;;5053791;28;20028;-79
2022/04/09 11:27:52;;;;;;;6.82;0.90;;;11.90;99.90;;;;;;5057898;28;20032;-80
2022/04/09 11:30:18;;;;;;;3.60;0.98;;;13.80;94.40;;;;;;5076729;28;20039;-79
2022/04/09 11:32:49;;;;;;;4.80;1.10;;;14.90;82.10;;;;;;5082187;28;20029;-79
2022/04/09 11:35:24;;;;;;;4.30;0.95;;;14.90;77.60;;;;;;5055452;28;20032;-78
2022/04/09 11:37:51;;;;;;;3.03;1.00;;;14.70;84.10;;;;;;5057799;28;20032;-80
2022/04/09 11:40:22;;;;;;;4.80;1.23;;;15.10;84.10;;;;;;5055578;28;20033;-79
2022/04/09 11:42:54;;;;;;;10.37;1.87;;;14.80;78.10;;;;;;5057869;28;20036;-78
2022/04/09 11:45:27;;;;;;;7.90;1.52;;;14.20;74.80;;;;;;5049942;28;20286;-80
2022/04/09 11:47:59;;;;;;;4.35;1.30;;;13.50;72.60;;;;;;5057806;28;20040;-79
2022/04/09 11:50:32;;;;;;;7.32;1.88;;;13.00;79.60;;;;;;5057646;28;20103;-79
2022/04/09 11:53:19;;;;;;;7.90;1.88;;;12.90;85.10;;;;;;5089716;28;20964;-79
2022/04/09 11:55:48;;;;;;;8.00;1.25;;;12.80;89.60;;;;;;5070576;28;20044;-78
2022/04/09 11:58:15;;;;;;;3.33;0.98;;;12.70;92.10;;;;;;5070566;28;20223;-80
2022/04/09 12:00:45;;;;;;;5.60;1.20;;;12.80;96.30;;;;;;5056339;28;20032;-79
2022/04/09 12:03:13;;;;;;;4.82;1.63;;;12.80;95.40;;;;;;5046391;28;20090;-79
2022/04/09 12:05:47;;;;;;;8.82;2.05;;;12.80;93.90;;;;;;5071548;28;20036;-82
2022/04/09 12:08:17;;;;;;;7.10;1.60;;;12.60;88.50;;;;;;5072624;28;20021;-78
2022/04/09 12:11:00;;;;;;;10.55;1.73;;;12.10;89.80;;;;;;5059569;28;20044;-79
2022/04/09 12:13:28;;;;;;;15.88;2.17;;;12.10;89.00;;;;;;5054011;28;20038;-78
2022/04/09 12:16:00;;;;;;;10.32;1.95;;;11.50;92.10;;;;;;5053823;28;20029;-77
2022/04/09 12:18:31;;;;;;;9.32;2.20;;;11.20;92.20;;;;;;5043103;28;20032;-79
2022/04/09 12:21:02;;;;;;;8.88;2.22;;;11.00;89.20;;;;;;5080130;28;20032;-79
2022/04/09 12:23:33;;;;;;;13.90;2.47;;;11.20;93.80;;;;;;5064926;28;20108;-80
2022/04/09 12:26:04;;;;;;;10.13;2.35;;;12.20;89.50;;;;;;5077099;28;20021;-80
2022/04/09 12:28:35;;;;;;;11.60;2.28;;;13.00;78.50;;;;;;5049503;28;20032;-81
2022/04/09 12:31:03;;;;;;;10.48;2.38;;;12.80;83.00;;;;;;5060103;28;20026;-82
2022/04/09 12:33:29;;;;;;;14.57;2.20;;;13.10;73.70;;;;;;5048644;28;20047;-78
2022/04/09 12:36:07;;;;;;;8.13;2.28;;;13.40;76.50;;;;;;5065846;28;20131;-79
2022/04/09 12:38:41;;;;;;;14.30;2.92;;;13.70;78.00;;;;;;5077786;28;20104;-78
2022/04/09 12:41:07;;;;;;;12.02;2.67;;;13.90;76.70;;;;;;5064397;28;20088;-79
2022/04/09 12:43:42;;;;;;;11.60;2.35;;;14.70;70.30;;;;;;5077531;28;20807;-80
2022/04/09 12:46:14;;;;;;;11.60;2.88;;;14.90;71.40;;;;;;5085158;28;20088;-81
2022/04/09 12:48:45;;;;;;;11.40;3.25;;;15.50;69.10;;;;;;5080765;28;20075;-79
2022/04/09 12:51:13;;;;;;;;;;;15.80;61.80;;;;;;5081649;28;20024;-79
2022/04/09 12:53:40;;;;;;;13.82;2.70;;;15.60;58.60;;;;;;5078778;28;19917;-78
2022/04/09 12:56:13;;;;;;;12.15;2.30;;;15.60;59.20;;;;;;5073912;28;20029;-81
2022/04/09 12:58:41;;;;;;;12.48;2.83;;;15.00;63.00;;;;;;5039292;28;20043;-78
2022/04/09 13:01:08;;;;;;;10.35;2.17;;;15.10;57.00;;;;;;5062279;28;20025;-77
2022/04/09 13:03:35;;;;;;;9.95;2.47;;;15.60;56.90;;;;;;5055698;28;20037;-80
2022/04/09 13:06:03;;;;;;;10.02;2.25;;;16.40;54.60;;;;;;5082311;28;20044;-80